Pagrindinis puslapis
METAR-TAF:

METAR-TAF

Oro uostai :

Macujama, Japonija

platuma: 33-49N, ilguma: 132-42E, Aukštis: 4 m

Dabartinis oras

Ataskaita buvo paskelbta 56 minutes, ne 01:00 UTC
Vėjas 14 kt iš Šiaurės
Temperatūra 7°C
Drėgmė 61%
Slėgis 1020 hPa
Matomumas 10 km arba daugiau
Mažai debesys ne aukštis 2500 ft
Išsisklaidę debesys ne aukštis 4000 ft
Liūtis kaimynystėje

METAR: RJOM 200100Z 36014KT 9999 VCSH FEW025 SCT040 07/M00 Q1020

Laikas: 10:56 (01:56 UTC)

Prognozė

Ataskaita buvo paskelbta 2 valandos ir 50 minutes, ne 23:06 UTC
Prognozė galioja nuo 20 metu 00 UTC su 21 metu 06 UTC
Vėjas 16 kt iš Šiaurės
Matomumas 10 km arba daugiau
Mažai debesys ne aukštis 2000 ft
Su prošvaistėmis ne aukštis 3500 ft

TAF: RJOM 192306Z 2000/2106 35016KT 9999 FEW020 BKN035

Orai ataskaitas ir orų prognozės (METAR, TAF).

turimą stotys yra geltonos ir raudonos taškus žemėlapyje.

Perkelti pele per norėdami pamatyti stoties vardą.

Tada spustelėkite, norėdami matyti oro stebėjimo ir prognozės.

Norėdami pakeisti žemėlapį: spustelėkite ant žalios mygtukų su juodo kryžiaus žemyn,; žalią mygtuką su brūkšneliu, jei norite nutolinti; arba žalių rodyklių gretimoms žemėlapius.


METAR-TAF: